CPX309 Details

Departure: Guam International Airport (PGUM)
Arrival: Tokyo-Narita International Airport (RJAA) at N/A
Route: UNZ TERYY G205 TEGOD A337 DAGDA G223 ADKAK Y819 CATCH Y815 KETAR Y811 VEPOX Y811 MELON
Notes:


Current Weather Information
PGUM 171554Z 07003KT 10SM FEW015 SCT048 26/24 A2980 RMK AO2 SLP082 T02610239
RJAA 171630Z VRB01KT 7000 FEW030 25/24 Q1004 NOSIG RMK 1CU030 A2967